Time;durP1;ratioP1;P1;durP2;ratioP2;P2;SDS_P1;SDS_P2;PMS_P1;PMS_P2;Temp;Humidity;BMP_temperature;BMP_pressure;BME280_temperature;BME280_humidity;BME280_pressure;Samples;Min_cycle;Max_cycle;Signal;HPM_P1;HPM_P2
2021/05/24 00:00:49;;;;;;;81.15;31.08;;;;;;;9.31;66.82;98967.41;4982246;28;20114;-69
2021/05/24 00:03:15;;;;;;;81.13;31.63;;;;;;;9.25;67.28;98972.06;4977742;28;20154;-70
2021/05/24 00:05:41;;;;;;;92.50;33.92;;;;;;;9.19;67.20;98971.22;4981172;28;20050;-70
2021/05/24 00:08:07;;;;;;;79.07;31.00;;;;;;;9.16;67.37;98970.97;4982212;28;20026;-70
2021/05/24 00:10:37;;;;;;;67.50;29.75;;;;;;;9.13;67.01;98974.25;4983511;28;20029;-69
2021/05/24 00:13:06;;;;;;;63.00;25.70;;;;;;;9.09;67.42;98976.72;4983917;28;20046;-71
2021/05/24 00:15:34;;;;;;;68.35;26.02;;;;;;;9.08;67.49;98975.06;4984043;28;20073;-71
2021/05/24 00:18:00;;;;;;;55.80;22.42;;;;;;;9.08;68.00;98966.88;4985293;28;20022;-69
2021/05/24 00:20:31;;;;;;;55.97;22.75;;;;;;;9.06;67.97;98972.59;4984607;28;20543;-70
2021/05/24 00:22:57;;;;;;;51.90;22.40;;;;;;;9.03;67.72;98966.88;4984442;28;20031;-69
2021/05/24 00:25:23;;;;;;;57.35;22.42;;;;;;;9.03;67.90;98975.88;4984289;28;20042;-69
2021/05/24 00:27:49;;;;;;;50.70;21.88;;;;;;;9.01;68.42;98969.06;4978587;28;20042;-70
2021/05/24 00:30:16;;;;;;;57.45;23.80;;;;;;;8.99;67.85;98979.44;4983685;28;20022;-70
2021/05/24 00:32:41;;;;;;;50.70;22.20;;;;;;;8.98;68.51;98969.59;4982428;28;20034;-70
2021/05/24 00:35:08;;;;;;;51.13;22.17;;;;;;;8.94;68.51;98972.88;4980916;28;20400;-69
2021/05/24 00:37:33;;;;;;;51.38;21.98;;;;;;;8.92;68.33;98968.78;4985022;28;20053;-69
2021/05/24 00:39:59;;;;;;;55.05;22.58;;;;;;;8.93;68.38;98973.16;4975789;28;20035;-69
2021/05/24 00:42:24;;;;;;;50.20;21.63;;;;;;;8.99;68.16;98973.97;4983677;28;20046;-69
2021/05/24 00:44:50;;;;;;;55.35;22.52;;;;;;;9.05;68.64;98970.16;4984035;28;20473;-69
2021/05/24 00:47:15;;;;;;;50.25;20.38;;;;;;;9.06;68.66;98978.06;4980857;28;20034;-69
2021/05/24 00:49:44;;;;;;;59.45;21.95;;;;;;;9.07;68.23;98976.97;4982862;28;20123;-69
2021/05/24 00:52:14;;;;;;;59.70;23.00;;;;;;;9.09;67.96;98976.72;4980575;28;20034;-69
2021/05/24 00:54:40;;;;;;;62.80;24.30;;;;;;;9.14;68.16;98967.69;4994322;28;20105;-69
2021/05/24 00:57:06;;;;;;;59.47;23.90;;;;;;;9.19;68.01;98959.47;4980110;28;20038;-70
2021/05/24 00:59:32;;;;;;;57.72;21.60;;;;;;;9.27;68.42;98955.34;4976671;28;20026;-69
2021/05/24 01:01:57;;;;;;;39.67;20.05;;;;;;;9.37;68.62;98964.38;4981110;28;20076;-69
2021/05/24 01:04:23;;;;;;;46.67;21.48;;;;;;;9.46;68.16;98964.66;4979155;28;20552;-69
2021/05/24 01:06:49;;;;;;;48.90;22.42;;;;;;;9.50;68.19;98956.69;4980331;28;20507;-69
2021/05/24 01:09:18;;;;;;;52.83;24.17;;;;;;;9.55;68.34;98953.94;4977678;28;20424;-69
2021/05/24 01:11:47;;;;;;;52.38;23.40;;;;;;;9.59;68.16;98960.50;4980448;28;20550;-70
2021/05/24 01:14:12;;;;;;;49.10;23.55;;;;;;;9.59;67.50;98955.03;4977820;28;20368;-69
2021/05/24 01:16:37;;;;;;;52.25;23.85;;;;;;;9.60;68.12;98962.16;4979977;28;20477;-69
2021/05/24 01:19:03;;;;;;;54.97;24.08;;;;;;;9.61;67.17;98957.47;4978381;28;20030;-69
2021/05/24 01:21:28;;;;;;;50.85;24.33;;;;;;;9.60;67.03;98961.31;4985448;28;20023;-69
2021/05/24 01:23:55;;;;;;;56.67;25.27;;;;;;;9.60;67.76;98953.94;4979664;28;20105;-69
2021/05/24 01:26:21;;;;;;;54.13;24.90;;;;;;;9.62;67.17;98943.53;4977969;28;20031;-69
2021/05/24 01:28:47;;;;;;;55.17;24.30;;;;;;;9.66;67.38;98947.34;4981368;28;20023;-70
2021/05/24 01:31:12;;;;;;;46.50;22.75;;;;;;;9.70;67.58;98963.22;4977462;28;20037;-69
2021/05/24 01:33:38;;;;;;;49.20;21.85;;;;;;;9.67;66.92;98959.94;4980457;28;20124;-69
2021/05/24 01:36:06;;;;;;;46.97;21.48;;;;;;;9.68;67.16;98963.50;4977648;28;20050;-69
2021/05/24 01:38:32;;;;;;;43.08;20.83;;;;;;;9.68;66.61;98963.50;4977023;28;20039;-69
2021/05/24 01:40:58;;;;;;;38.28;20.90;;;;;;;9.66;66.78;98961.03;4979079;28;20395;-70
2021/05/24 01:43:30;;;;;;;48.97;21.27;;;;;;;9.64;67.42;98971.44;4994691;28;20034;-69
2021/05/24 01:45:56;;;;;;;39.45;19.52;;;;;;;9.62;67.23;98967.34;4979885;28;20026;-69
2021/05/24 01:48:22;;;;;;;37.13;17.30;;;;;;;9.60;66.89;98964.88;4977698;28;20114;-69
2021/05/24 01:50:48;;;;;;;36.72;17.85;;;;;;;9.58;66.60;98961.59;4979082;28;20030;-70
2021/05/24 01:53:13;;;;;;;38.10;18.30;;;;;;;9.53;66.80;98959.72;4979461;28;20499;-69
2021/05/24 01:55:39;;;;;;;37.47;19.33;;;;;;;9.54;66.84;98963.25;4982147;28;20026;-70
2021/05/24 01:58:05;;;;;;;32.35;17.00;;;;;;;9.53;66.34;98959.72;4978623;28;20033;-69
2021/05/24 02:00:31;;;;;;;34.13;15.75;;;;;;;9.56;66.69;98961.06;4978419;28;20034;-69
2021/05/24 02:02:57;;;;;;;30.92;15.95;;;;;;;9.56;66.59;98968.47;4979429;28;20458;-70
2021/05/24 02:05:24;;;;;;;31.23;15.57;;;;;;;9.53;66.64;98965.19;4978331;28;20035;-70
2021/05/24 02:07:50;;;;;;;32.80;15.55;;;;;;;9.47;66.57;98973.66;4978264;28;20030;-70
2021/05/24 02:10:20;;;;;;;29.13;14.88;;;;;;;9.43;66.95;98967.09;4976652;28;20446;-70
2021/05/24 02:12:46;;;;;;;;;;;;;;;9.43;66.07;98973.41;4980730;28;20049;-69
2021/05/24 02:15:13;;;;;;;29.33;15.85;;;;;;;9.34;66.02;98975.06;4977291;28;20000;-69
2021/05/24 02:17:39;;;;;;;28.35;13.88;;;;;;;9.24;66.29;98984.91;4977962;28;20071;-69
2021/05/24 02:20:06;;;;;;;29.45;12.73;;;;;;;9.15;66.59;98989.31;4980424;28;20023;-69
2021/05/24 02:22:31;;;;;;;25.52;13.10;;;;;;;9.09;66.26;98979.47;4976285;28;20481;-69
2021/05/24 02:24:57;;;;;;;29.42;13.05;;;;;;;9.04;66.82;98979.44;4978503;28;20027;-69
2021/05/24 02:27:22;;;;;;;25.30;12.77;;;;;;;9.00;66.79;98983.81;4978186;28;20105;-69
2021/05/24 02:29:47;;;;;;;30.42;13.20;;;;;;;9.04;66.80;98982.19;4979618;28;20487;-70
2021/05/24 02:32:13;;;;;;;28.35;13.18;;;;;;;9.07;67.28;98993.41;4977165;28;20031;-69
2021/05/24 02:34:38;;;;;;;30.33;15.23;;;;;;;9.03;67.02;98996.97;4978133;28;20030;-69
2021/05/24 02:37:04;;;;;;;25.90;13.50;;;;;;;9.02;67.17;99001.59;4979571;28;20135;-69
2021/05/24 02:39:30;;;;;;;26.90;12.93;;;;;;;8.99;67.19;98999.41;4978126;28;20046;-69
2021/05/24 02:41:56;;;;;;;28.50;13.30;;;;;;;9.00;67.11;99002.97;4974012;28;20026;-70
2021/05/24 02:44:21;;;;;;;30.35;14.02;;;;;;;8.99;66.83;99006.81;4972457;28;20053;-70
2021/05/24 02:46:47;;;;;;;30.17;14.93;;;;;;;8.98;67.32;99003.22;4972693;28;20018;-70
2021/05/24 02:49:12;;;;;;;31.13;14.82;;;;;;;8.98;67.50;99010.63;4972941;28;20030;-70
2021/05/24 02:51:38;;;;;;;30.55;14.40;;;;;;;8.96;67.02;99007.34;4973136;28;20032;-69
2021/05/24 02:54:05;;;;;;;33.83;16.08;;;;;;;8.96;67.57;99007.34;4971683;28;20139;-69
2021/05/24 02:56:30;;;;;;;32.17;15.43;;;;;;;8.92;67.35;98999.69;4967756;28;20572;-70
2021/05/24 02:58:56;;;;;;;30.50;15.88;;;;;;;8.86;67.57;99000.75;4973200;28;20077;-70
2021/05/24 03:01:21;;;;;;;31.52;15.07;;;;;;;8.76;67.84;98996.09;4972569;28;20105;-70
2021/05/24 03:03:53;;;;;;;35.47;14.90;;;;;;;8.72;67.11;98994.19;4972467;28;20154;-69
2021/05/24 03:06:19;;;;;;;31.80;14.98;;;;;;;8.63;67.17;98994.72;4973190;28;20066;-69
2021/05/24 03:08:44;;;;;;;36.72;16.45;;;;;;;8.59;67.46;99000.97;4972248;28;20603;-69
2021/05/24 03:11:10;;;;;;;33.42;15.93;;;;;;;8.58;67.69;98999.34;4972624;28;20027;-69
2021/05/24 03:13:35;;;;;;;39.83;17.05;;;;;;;8.57;67.57;98998.53;4971282;28;20080;-69
2021/05/24 03:16:01;;;;;;;33.40;15.35;;;;;;;8.57;67.80;98995.81;4972669;28;20033;-70
2021/05/24 03:18:26;;;;;;;36.08;15.90;;;;;;;8.60;68.00;99002.63;4972399;28;20015;-70
2021/05/24 03:20:52;;;;;;;32.05;14.35;;;;;;;8.62;68.28;98993.06;4972930;28;20503;-70
2021/05/24 03:23:17;;;;;;;39.72;15.45;;;;;;;8.62;68.21;98993.06;4972057;28;20074;-70
2021/05/24 03:25:43;;;;;;;34.55;14.57;;;;;;;8.61;67.98;98996.91;4972996;28;20038;-69
2021/05/24 03:28:08;;;;;;;33.97;15.30;;;;;;;8.64;68.46;98988.16;4972115;28;20102;-69
2021/05/24 03:30:33;;;;;;;33.88;14.25;;;;;;;8.72;68.30;98996.94;4973558;28;20062;-69
2021/05/24 03:32:59;;;;;;;35.85;14.65;;;;;;;8.80;68.80;98990.91;4975176;28;20042;-69
2021/05/24 03:35:24;;;;;;;32.05;13.57;;;;;;;8.92;68.55;98991.47;4975580;28;20043;-69
2021/05/24 03:37:50;;;;;;;30.73;13.65;;;;;;;9.00;68.88;98986.56;4975400;28;20069;-69
2021/05/24 03:40:17;;;;;;;27.17;12.75;;;;;;;9.11;68.23;98981.91;4975559;28;20039;-69
2021/05/24 03:42:43;;;;;;;32.13;14.00;;;;;;;9.17;68.64;98986.28;4975315;28;20026;-70
2021/05/24 03:45:15;;;;;;;46.33;19.20;;;;;;;9.26;68.61;98981.06;4975629;28;20034;-70
2021/05/24 03:47:41;;;;;;;52.58;26.35;;;;;;;9.33;68.78;98976.16;4975495;28;20097;-69
2021/05/24 03:50:07;;;;;;;63.70;29.83;;;;;;;9.37;68.62;98969.03;4975395;28;20039;-70
2021/05/24 03:52:33;;;;;;;70.32;29.00;;;;;;;9.42;68.04;98969.03;4975693;28;20042;-70
2021/05/24 03:54:58;;;;;;;54.78;22.17;;;;;;;9.45;68.21;98960.25;4975619;28;20035;-69
2021/05/24 03:57:23;;;;;;;49.42;19.95;;;;;;;9.47;68.03;98965.44;4975120;28;20038;-70
2021/05/24 03:59:49;;;;;;;40.70;16.48;;;;;;;9.50;68.42;98975.84;4974708;28;20031;-69
2021/05/24 04:02:14;;;;;;;42.60;17.55;;;;;;;9.51;67.40;98983.81;4974666;28;20038;-69
2021/05/24 04:04:41;;;;;;;37.55;15.40;;;;;;;9.52;68.30;98981.88;4975341;28;20035;-69
2021/05/24 04:07:08;;;;;;;28.35;12.95;;;;;;;9.53;67.89;98980.78;4975287;28;20031;-70
2021/05/24 04:09:34;;;;;;;29.77;13.18;;;;;;;9.53;67.88;98983.50;4974816;28;20157;-70
2021/05/24 04:11:59;;;;;;;31.40;12.88;;;;;;;9.53;67.83;98989.81;4975078;28;20114;-70
2021/05/24 04:14:24;;;;;;;33.85;14.25;;;;;;;9.57;67.52;98989.28;4974365;28;20173;-69
2021/05/24 04:16:50;;;;;;;44.63;16.30;;;;;;;9.62;67.31;98994.72;4974378;28;20039;-69
2021/05/24 04:19:16;;;;;;;47.15;17.48;;;;;;;9.66;67.71;99004.03;4974541;28;20038;-70
2021/05/24 04:21:43;;;;;;;38.03;15.25;;;;;;;9.70;67.87;99010.59;4975052;28;20062;-69
2021/05/24 04:24:11;;;;;;;27.65;13.40;;;;;;;9.70;68.06;99013.34;4974452;28;20105;-69
2021/05/24 04:26:37;;;;;;;28.75;13.48;;;;;;;9.68;67.32;99013.63;4974825;28;20027;-69
2021/05/24 04:29:03;;;;;;;33.20;14.77;;;;;;;9.71;68.24;99019.66;4974989;28;20038;-69
2021/05/24 04:31:28;;;;;;;28.67;13.48;;;;;;;9.74;67.98;99028.13;4970128;28;20035;-69
2021/05/24 04:33:54;;;;;;;34.60;13.85;;;;;;;9.78;67.71;99028.41;4956338;28;20035;-70
2021/05/24 04:36:19;;;;;;;31.60;15.02;;;;;;;9.82;67.66;99033.03;4956331;28;20106;-69
2021/05/24 04:38:45;;;;;;;31.33;14.07;;;;;;;9.88;67.77;99024.81;4956197;28;20027;-69
2021/05/24 04:41:11;;;;;;;34.05;15.25;;;;;;;9.95;67.58;99034.38;4966269;28;20034;-69
2021/05/24 04:43:39;;;;;;;35.08;16.13;;;;;;;9.97;68.32;99026.69;4975272;28;20034;-69
2021/05/24 04:46:04;;;;;;;31.15;14.95;;;;;;;10.03;67.73;99035.72;4975050;28;20062;-69
2021/05/24 04:48:30;;;;;;;32.47;14.40;;;;;;;10.08;68.17;99034.91;4974727;28;20110;-70
2021/05/24 04:50:55;;;;;;;32.03;15.35;;;;;;;10.09;67.94;99033.81;4975032;28;20026;-70
2021/05/24 04:53:20;;;;;;;30.50;14.25;;;;;;;10.15;67.98;99037.34;4975039;28;20523;-70
2021/05/24 04:55:46;;;;;;;34.80;14.75;;;;;;;10.21;67.55;99034.28;4975344;28;20033;-70
2021/05/24 04:58:12;;;;;;;30.48;14.80;;;;;;;10.26;67.58;99034.28;4974542;28;20022;-70
2021/05/24 05:00:39;;;;;;;30.05;14.20;;;;;;;10.33;67.49;99028.50;4974739;28;20077;-69
2021/05/24 05:03:04;;;;;;;30.38;14.05;;;;;;;10.39;68.48;99043.84;4974297;28;20062;-69
2021/05/24 05:05:30;;;;;;;26.50;14.35;;;;;;;10.45;67.89;99046.56;4974198;28;20535;-69
2021/05/24 05:07:55;;;;;;;28.75;13.23;;;;;;;10.50;67.86;99049.28;4974408;28;20385;-68
2021/05/24 05:10:20;;;;;;;30.20;12.57;;;;;;;10.52;67.87;99047.09;4974135;28;20092;-68
2021/05/24 05:12:46;;;;;;;28.58;12.88;;;;;;;10.56;68.52;99051.75;4974428;28;20477;-68
2021/05/24 05:15:11;;;;;;;26.95;12.32;;;;;;;10.64;67.62;99050.34;4974123;28;20033;-68
2021/05/24 05:17:37;;;;;;;27.42;11.68;;;;;;;10.71;68.10;99053.59;4974729;28;20023;-68
2021/05/24 05:20:04;;;;;;;26.77;12.55;;;;;;;10.76;67.96;99058.22;4973842;28;20027;-68
2021/05/24 05:22:30;;;;;;;24.02;11.30;;;;;;;10.81;68.74;99052.72;4976927;28;20054;-68
2021/05/24 05:24:55;;;;;;;23.08;11.00;;;;;;;10.89;68.45;99045.78;4969840;28;20065;-68
2021/05/24 05:27:21;;;;;;;22.90;10.10;;;;;;;10.92;68.38;99042.47;4973676;28;20049;-68
2021/05/24 05:29:46;;;;;;;27.55;12.35;;;;;;;10.99;68.46;99042.19;4974033;28;20030;-68
2021/05/24 05:32:12;;;;;;;20.08;10.82;;;;;;;11.08;68.81;99045.13;4971831;28;20125;-69
2021/05/24 05:34:37;;;;;;;22.25;10.82;;;;;;;11.18;67.96;99053.31;4971910;28;20477;-67
2021/05/24 05:37:03;;;;;;;24.88;11.70;;;;;;;11.26;68.05;99058.16;4973007;28;20046;-68
2021/05/24 05:39:28;;;;;;;24.98;10.15;;;;;;;11.37;68.83;99050.69;4973156;28;20022;-68
2021/05/24 05:41:54;;;;;;;22.20;10.55;;;;;;;11.46;68.56;99040.69;4973572;28;20019;-68
2021/05/24 05:44:19;;;;;;;24.27;10.50;;;;;;;11.56;68.99;99050.81;4972062;28;20027;-68
2021/05/24 05:46:44;;;;;;;24.83;9.82;;;;;;;11.65;68.68;99062.00;4972849;28;20482;-70
2021/05/24 05:49:10;;;;;;;26.35;10.10;;;;;;;11.71;68.44;99052.59;4973526;28;20075;-68
2021/05/24 05:51:35;;;;;;;22.00;10.57;;;;;;;11.82;68.93;99056.06;4973685;28;20023;-69
2021/05/24 05:54:01;;;;;;;22.92;10.35;;;;;;;11.89;68.55;99061.19;4971688;28;20050;-68
2021/05/24 05:56:26;;;;;;;21.90;9.88;;;;;;;11.96;68.42;99052.63;4972245;28;20026;-68
2021/05/24 05:58:51;;;;;;;21.05;9.18;;;;;;;12.04;68.27;99036.34;4972780;28;20018;-69
2021/05/24 06:01:17;;;;;;;19.42;8.18;;;;;;;12.16;68.44;99040.63;4973363;28;20532;-69
2021/05/24 06:03:42;;;;;;;17.85;7.38;;;;;;;12.25;68.17;99041.59;4973368;28;20030;-69
2021/05/24 06:06:08;;;;;;;19.30;8.25;;;;;;;12.35;68.39;99051.69;4973613;28;20058;-69
2021/05/24 06:08:33;;;;;;;15.65;7.00;;;;;;;12.45;68.13;99050.72;4973627;28;20504;-69
2021/05/24 06:10:59;;;;;;;17.58;7.43;;;;;;;12.52;68.25;99051.19;4972126;28;20019;-69
2021/05/24 06:13:25;;;;;;;16.08;6.97;;;;;;;12.62;67.94;99048.31;4973057;28;20042;-68
2021/05/24 06:15:50;;;;;;;16.45;6.30;;;;;;;12.75;68.01;99049.50;4973038;28;20133;-69
2021/05/24 06:18:16;;;;;;;15.13;5.97;;;;;;;12.88;68.14;99055.38;4972672;28;20114;-68
2021/05/24 06:20:46;;;;;;;17.27;6.05;;;;;;;12.99;68.31;99056.88;4981086;28;20464;-69
2021/05/24 06:23:13;;;;;;;13.43;5.90;;;;;;;13.09;67.98;99058.66;4973591;28;20034;-69
2021/05/24 06:25:39;;;;;;;10.48;5.35;;;;;;;13.18;67.90;99062.38;4956701;28;20047;-68
2021/05/24 06:28:05;;;;;;;12.10;5.07;;;;;;;13.24;67.67;99052.94;4961821;28;20019;-69
2021/05/24 06:30:30;;;;;;;13.93;5.68;;;;;;;13.35;67.46;99056.34;4958379;28;20449;-69
2021/05/24 06:32:56;;;;;;;13.10;6.00;;;;;;;13.45;67.45;99054.56;4958238;28;20029;-69
2021/05/24 06:35:21;;;;;;;12.68;5.53;;;;;;;13.54;67.26;99053.56;4960734;28;20050;-70
2021/05/24 06:37:47;;;;;;;15.63;7.28;;;;;;;13.65;67.14;99045.13;4992336;28;20040;-69
2021/05/24 06:40:13;;;;;;;17.38;7.22;;;;;;;13.74;67.14;99050.75;4966300;28;20055;-68
2021/05/24 06:42:38;;;;;;;15.20;6.78;;;;;;;13.83;67.17;99052.53;4958710;28;20041;-67
2021/05/24 06:45:05;;;;;;;15.15;6.15;;;;;;;13.91;67.04;99055.69;4960732;28;20031;-68
2021/05/24 06:47:30;;;;;;;11.70;5.32;;;;;;;13.95;66.54;99059.47;4956158;28;20234;-67
2021/05/24 06:49:56;;;;;;;12.15;5.22;;;;;;;13.97;66.47;99051.72;4957116;28;20409;-68
2021/05/24 06:52:21;;;;;;;14.60;5.53;;;;;;;14.04;66.73;99057.66;4959015;28;20027;-68
2021/05/24 06:54:46;;;;;;;24.98;11.05;;;;;;;14.12;66.52;99048.69;4958298;28;20031;-68
2021/05/24 06:57:12;;;;;;;15.10;6.70;;;;;;;14.20;66.45;99060.94;4955721;28;20226;-67
2021/05/24 06:59:38;;;;;;;11.23;5.70;;;;;;;14.26;66.30;99067.19;4958309;28;20741;-67
2021/05/24 07:02:04;;;;;;;15.70;6.70;;;;;;;14.33;66.05;99072.31;4958553;28;20569;-68
2021/05/24 07:04:29;;;;;;;12.65;6.80;;;;;;;14.40;66.24;99070.75;4957631;28;20031;-67
2021/05/24 07:06:54;;;;;;;10.70;5.95;;;;;;;14.46;65.93;99074.25;4959173;28;20019;-68
2021/05/24 07:09:21;;;;;;;39.63;18.23;;;;;;;14.54;65.69;99065.22;4963095;28;20050;-68
2021/05/24 07:11:47;;;;;;;16.27;7.57;;;;;;;14.64;65.82;99060.63;4960247;28;20089;-68
2021/05/24 07:14:12;;;;;;;15.32;8.20;;;;;;;14.74;65.81;99061.25;4966186;28;20051;-67
2021/05/24 07:16:37;;;;;;;15.75;8.00;;;;;;;14.83;65.79;99052.25;4964591;28;20027;-67
2021/05/24 07:19:03;;;;;;;18.45;9.85;;;;;;;14.91;65.50;99042.41;4954582;28;20033;-68
2021/05/24 07:21:29;;;;;;;15.25;5.80;;;;;;;14.97;65.32;99046.69;4958826;28;20431;-67
2021/05/24 07:23:54;;;;;;;11.02;5.78;;;;;;;15.05;65.28;99042.38;4962287;28;20404;-67
2021/05/24 07:26:19;;;;;;;8.85;4.53;;;;;;;15.10;64.84;99034.78;4964260;28;20035;-65
2021/05/24 07:28:45;;;;;;;7.65;4.68;;;;;;;15.15;64.99;99042.94;4960727;28;20035;-67
2021/05/24 07:31:10;;;;;;;8.32;3.85;;;;;;;15.20;64.29;99044.75;4964675;28;20039;-69
2021/05/24 07:33:36;;;;;;;13.00;6.43;;;;;;;15.23;63.97;99038.63;4958488;28;20078;-68
2021/05/24 07:36:01;;;;;;;5.88;4.18;;;;;;;15.27;63.95;99028.56;4959431;28;20046;-68
2021/05/24 07:38:26;;;;;;;8.88;4.65;;;;;;;15.33;63.86;99030.09;4958323;28;20053;-69
2021/05/24 07:40:52;;;;;;;8.10;4.57;;;;;;;15.36;63.86;99034.16;4960148;28;20506;-68
2021/05/24 07:43:18;;;;;;;11.65;4.10;;;;;;;15.38;63.42;99022.81;4956334;28;20031;-67
2021/05/24 07:45:43;;;;;;;7.97;4.20;;;;;;;15.47;63.29;99029.22;4963919;28;20449;-68
2021/05/24 07:48:09;;;;;;;10.68;4.47;;;;;;;15.55;63.15;99041.44;4961834;28;20861;-68
2021/05/24 07:50:34;;;;;;;11.38;4.60;;;;;;;15.59;63.01;99032.19;4957260;28;20045;-68
2021/05/24 07:52:59;;;;;;;15.70;7.07;;;;;;;15.63;62.99;99033.19;4950984;28;20090;-68
2021/05/24 07:55:25;;;;;;;19.90;7.60;;;;;;;15.68;62.73;99042.50;4948621;28;20046;-71
2021/05/24 07:57:50;;;;;;;11.52;4.53;;;;;;;15.72;62.47;99040.75;4979275;28;20042;-68
2021/05/24 08:00:16;;;;;;;13.05;5.18;;;;;;;15.75;61.96;99031.81;4942203;28;20071;-69
2021/05/24 08:02:43;;;;;;;10.93;4.90;;;;;;;15.81;62.44;99044.38;4903903;28;21020;-69
2021/05/24 08:05:11;;;;;;;12.75;4.57;;;;;;;15.85;61.68;99039.84;4927821;28;20534;-69
2021/05/24 08:07:36;;;;;;;9.23;4.70;;;;;;;15.90;61.95;99038.91;4947457;28;20371;-68
2021/05/24 08:10:03;;;;;;;13.00;4.43;;;;;;;15.97;61.96;99027.38;4942595;29;20030;-69
2021/05/24 08:12:29;;;;;;;10.63;3.95;;;;;;;16.04;61.75;99024.97;4937179;28;20135;-69
2021/05/24 08:14:54;;;;;;;13.00;4.75;;;;;;;16.10;61.51;99020.13;4943597;29;20028;-69
2021/05/24 08:17:20;;;;;;;11.90;4.78;;;;;;;16.14;61.16;99024.72;4936639;28;20081;-69
2021/05/24 08:19:45;;;;;;;8.73;4.13;;;;;;;16.18;61.02;99020.16;4940344;29;20118;-68
2021/05/24 08:22:10;;;;;;;8.05;3.90;;;;;;;16.22;61.26;99010.09;4933946;29;20114;-68
2021/05/24 08:24:36;;;;;;;7.55;3.42;;;;;;;16.30;61.12;98997.41;4936406;29;20031;-69
2021/05/24 08:27:01;;;;;;;8.52;3.42;;;;;;;16.39;60.59;98986.34;4941452;29;20042;-69
2021/05/24 08:29:26;;;;;;;8.57;3.13;;;;;;;16.44;60.49;98983.44;4935026;28;20061;-69
2021/05/24 08:31:52;;;;;;;11.82;8.07;;;;;;;16.49;59.90;98983.28;4932604;29;20070;-69
2021/05/24 08:34:17;;;;;;;7.28;4.55;;;;;;;16.53;59.96;98988.97;4941258;29;20497;-71
2021/05/24 08:36:43;;;;;;;10.00;3.67;;;;;;;16.59;59.86;98973.84;4941632;28;20048;-70
2021/05/24 08:39:09;;;;;;;7.50;3.45;;;;;;;16.62;59.47;98970.44;4940901;29;20039;-71
2021/05/24 08:41:35;;;;;;;8.52;3.70;;;;;;;16.68;59.21;98973.88;4935476;28;20163;-71
2021/05/24 08:44:01;;;;;;;10.55;4.10;;;;;;;16.72;58.99;98977.59;4944723;29;20537;-70
2021/05/24 08:46:27;;;;;;;6.60;3.80;;;;;;;16.76;59.26;98983.31;4943139;28;20106;-69
2021/05/24 08:48:53;;;;;;;11.70;5.28;;;;;;;16.79;58.95;98986.25;4937521;28;20689;-70
2021/05/24 08:51:18;;;;;;;9.43;4.78;;;;;;;16.85;58.67;98989.69;4938966;29;20086;-70
2021/05/24 08:53:44;;;;;;;13.05;4.53;;;;;;;16.88;58.84;98989.03;4935284;28;20039;-68
2021/05/24 08:56:10;;;;;;;11.35;5.78;;;;;;;16.92;58.98;98995.53;4933628;29;20053;-69
2021/05/24 08:58:36;;;;;;;9.30;4.22;;;;;;;16.98;58.65;99000.94;4932594;29;20038;-69
2021/05/24 09:01:06;;;;;;;8.48;4.35;;;;;;;17.02;58.16;98997.22;4949757;28;20031;-68
2021/05/24 09:03:34;;;;;;;12.60;5.13;;;;;;;17.04;57.76;98983.84;4926547;28;20090;-68
2021/05/24 09:06:01;;;;;;;10.93;4.53;;;;;;;17.09;57.81;98991.16;4935644;28;20130;-69
2021/05/24 09:08:38;;;;;;;10.25;4.60;;;;;;;17.16;57.58;98982.34;4939618;29;20496;-67
2021/05/24 09:11:06;;;;;;;12.70;5.55;;;;;;;17.24;57.61;98981.53;4935202;29;20039;-68
2021/05/24 09:13:33;;;;;;;13.90;5.50;;;;;;;17.30;57.73;98979.44;4938128;29;20031;-68
2021/05/24 09:16:00;;;;;;;14.82;5.82;;;;;;;17.34;57.63;98978.44;4936225;28;20739;-67
2021/05/24 09:18:26;;;;;;;16.67;5.88;;;;;;;17.37;57.08;98976.94;4929971;29;20106;-68
2021/05/24 09:20:52;;;;;;;11.75;5.28;;;;;;;17.40;56.77;98979.06;4930920;29;20556;-67
2021/05/24 09:23:24;;;;;;;11.30;4.72;;;;;;;17.41;56.71;98977.91;4934499;28;20039;-67
2021/05/24 09:26:08;;;;;;;12.90;5.32;;;;;;;17.44;56.69;98960.63;4942322;29;20024;-69
2021/05/24 09:28:49;;;;;;;8.55;4.40;;;;;;;17.49;56.52;98956.88;4945463;28;20031;-68
2021/05/24 09:31:15;;;;;;;11.40;4.90;;;;;;;17.53;56.06;98960.59;4945603;29;20031;-68
2021/05/24 09:33:50;;;;;;;14.55;4.85;;;;;;;17.55;56.02;98956.34;4944877;28;20047;-68
2021/05/24 09:36:15;;;;;;;11.20;4.68;;;;;;;17.59;55.72;98959.28;4944535;29;20118;-68
2021/05/24 09:38:44;;;;;;;7.70;3.47;;;;;;;17.61;55.87;98947.88;4926173;28;20133;-69
2021/05/24 09:41:11;;;;;;;11.82;6.22;;;;;;;17.64;55.53;98955.53;4927021;28;20037;-70
2021/05/24 09:43:42;;;;;;;19.60;10.63;;;;;;;17.67;55.59;98950.13;4924410;29;20665;-69
2021/05/24 09:46:15;;;;;;;13.27;5.65;;;;;;;17.69;55.16;98947.81;4936930;28;20063;-69
2021/05/24 09:48:42;;;;;;;7.57;3.90;;;;;;;17.66;54.50;98948.50;4940032;28;21116;-71
2021/05/24 09:51:12;;;;;;;6.25;3.65;;;;;;;17.63;54.16;98949.16;4944409;28;20035;-71
2021/05/24 09:53:37;;;;;;;7.60;3.20;;;;;;;17.65;54.32;98943.28;4944955;28;20035;-70
2021/05/24 09:56:09;;;;;;;9.32;3.67;;;;;;;17.71;54.46;98940.00;4944609;28;20043;-69
2021/05/24 09:58:35;;;;;;;8.57;5.20;;;;;;;17.80;54.65;98937.16;4941529;28;20023;-69
2021/05/24 10:01:18;;;;;;;8.75;3.83;;;;;;;17.85;54.31;98944.50;4935655;28;20035;-70
2021/05/24 10:03:46;;;;;;;10.93;4.10;;;;;;;17.89;54.02;98937.16;4936469;28;20031;-70
2021/05/24 10:06:11;;;;;;;7.63;4.30;;;;;;;17.96;54.26;98940.19;4943985;28;20027;-70
2021/05/24 10:08:38;;;;;;;8.88;4.28;;;;;;;18.03;53.96;98927.78;4944057;28;20023;-70
2021/05/24 10:11:03;;;;;;;8.85;4.07;;;;;;;18.08;53.91;98914.56;4931345;28;20031;-69
2021/05/24 10:13:29;;;;;;;10.52;4.18;;;;;;;18.15;53.70;98908.47;4935273;28;21170;-68
2021/05/24 10:16:02;;;;;;;7.68;3.40;;;;;;;18.20;53.60;98905.50;4935117;28;20035;-70
2021/05/24 10:18:30;;;;;;;9.23;3.45;;;;;;;18.24;53.22;98906.44;4935260;29;20035;-71
2021/05/24 10:21:01;;;;;;;9.18;4.18;;;;;;;18.29;53.17;98909.03;4923929;28;20027;-69
2021/05/24 10:23:29;;;;;;;10.35;4.28;;;;;;;18.36;53.52;98911.25;4932847;28;20023;-69
2021/05/24 10:25:58;;;;;;;7.40;3.50;;;;;;;18.43;53.06;98900.44;4938035;29;20485;-68
2021/05/24 10:28:28;;;;;;;11.17;3.73;;;;;;;18.49;52.91;98889.94;4941380;29;20278;-67
2021/05/24 10:30:55;;;;;;;8.38;3.42;;;;;;;18.57;53.21;98893.78;4938818;28;20035;-66
2021/05/24 10:33:25;;;;;;;8.38;3.50;;;;;;;18.67;53.31;98893.38;4938627;28;20047;-66
2021/05/24 10:35:50;;;;;;;6.95;3.80;;;;;;;18.78;53.08;98879.88;4937443;28;20040;-67
2021/05/24 10:38:28;;;;;;;10.10;3.70;;;;;;;18.92;53.41;98876.00;4938297;28;20573;-68
2021/05/24 10:41:12;;;;;;;6.22;2.60;;;;;;;19.00;51.85;98881.50;4937348;29;20521;-67
2021/05/24 10:43:44;;;;;;;4.53;2.42;;;;;;;19.03;51.15;98885.56;4934812;28;20030;-67
2021/05/24 10:46:31;;;;;;;8.30;2.97;;;;;;;19.10;51.59;98879.44;4937954;29;20062;-68
2021/05/24 10:48:58;;;;;;;9.45;3.10;;;;;;;19.18;51.26;98871.00;4943713;28;20114;-69
2021/05/24 10:51:46;;;;;;;10.20;3.45;;;;;;;19.28;51.45;98877.28;4944245;28;20237;-67
2021/05/24 10:54:13;;;;;;;8.20;3.53;;;;;;;19.38;50.79;98876.03;4935129;29;21032;-68
2021/05/24 10:56:46;;;;;;;9.32;3.55;;;;;;;19.42;50.85;98871.41;4943071;29;20037;-69
2021/05/24 10:59:46;;;;;;;8.07;3.20;;;;;;;19.46;50.60;98858.41;4944780;29;20085;-67
2021/05/24 11:02:34;;;;;;;7.07;3.42;;;;;;;19.55;50.81;98850.00;4939146;29;20152;-67
2021/05/24 11:05:06;;;;;;;8.60;3.83;;;;;;;19.61;50.80;98857.75;4935868;29;20505;-68
2021/05/24 11:07:34;;;;;;;7.40;3.35;;;;;;;19.70;50.16;98842.91;4938415;28;20042;-69
2021/05/24 11:10:18;;;;;;;7.13;3.80;;;;;;;19.78;50.23;98844.75;4943618;28;20023;-69
2021/05/24 11:12:50;;;;;;;8.88;4.93;;;;;;;19.78;48.54;98839.19;4944286;28;20110;-69
2021/05/24 11:15:23;;;;;;;10.70;3.90;;;;;;;19.71;48.16;98839.78;4942898;28;20158;-68
2021/05/24 11:18:00;;;;;;;8.30;3.63;;;;;;;19.75;48.89;98828.78;4943522;29;20046;-68
2021/05/24 11:20:53;;;;;;;6.82;4.10;;;;;;;19.84;49.08;98829.44;4944951;28;20526;-69
2021/05/24 11:26:19;;;;;;;9.10;3.95;;;;;;;20.07;48.95;98826.19;4935414;29;20047;-69
2021/05/24 11:28:54;;;;;;;6.72;3.70;;;;;;;20.14;48.69;98817.25;4939469;29;20043;-69